Etusivu
METAR-TAF:

METAR-TAF

Lentoasemat :

Point Lay, Alaska, Yhdysvallat

Leveyspiiri: 69-43N, Pituuspiiri: 163-00W, korkeus merenpinnasta: 8 m

Tämänhetkinen sää

Tämä raportti tehtiin 52 minuuttia sitten, kello 12.56 UTC
Tuuli 7 kn etelästä
Lämpötila 6°C
Kosteus 100%
Ilmanpaine 1014 hPa
Näkyvyys: 16.1 km
Pilvistä 400 ft:n korkeudessa

METAR: PPIZ 231256Z AUTO 18007KT 10SM OVC004 06/06 A2995 RMK AO2 SLP146 T00610056

Aika: 05:48 (13:48 UTC)


TAF: puuttuu

Säähavainnot ja -ennusteet yli 4000 lentoasemalta (METAR- ja TAF-raportit).

Käytössä olevat sääasemat on merkitty karttaan keltaisilla ja punaisilla pisteillä.

Aseta hiiri pisteen päälle nähdäksesi sääaseman nimen.

Klikkaa sitten nähdäksesi säähavainnot ja -ennusteet.

Kartan vaihtaminen: klikkaa mustalla rastilla varustettuja vihreitä pisteitä, niin voit zoomata sisään; viivalla varustettua vihreää pistettä, niin voit zoomata ulos tai vihreitä nuolia, niin pääset viereisille kartoille.


METAR-TAF: